Time;durP1;ratioP1;P1;durP2;ratioP2;P2;SDS_P1;SDS_P2;PMS_P1;PMS_P2;Temp;Humidity;BMP_temperature;BMP_pressure;BME280_temperature;BME280_humidity;BME280_pressure;Samples;Min_cycle;Max_cycle;Signal;HPM_P1;HPM_P2
2021/10/13 00:03:08;;;;;;;5.93;3.03;;;11.30;92.30;;;;;;10114643;28;20037;-59
2021/10/13 00:07:59;;;;;;;3.92;2.78;;;11.30;92.50;;;;;;10107548;28;20021;-61
2021/10/13 00:12:49;;;;;;;5.47;3.38;;;11.10;92.50;;;;;;10122454;28;20468;-54
2021/10/13 00:17:40;;;;;;;3.97;2.70;;;11.00;92.40;;;;;;10112857;28;20041;-59
2021/10/13 00:22:30;;;;;;;4.28;2.83;;;11.00;92.40;;;;;;10105511;28;20051;-63
2021/10/13 00:27:21;;;;;;;5.05;2.55;;;11.10;92.40;;;;;;10115995;28;20024;-58
2021/10/13 00:32:12;;;;;;;7.53;3.35;;;11.00;92.40;;;;;;10123360;28;20066;-53
2021/10/13 00:37:03;;;;;;;7.07;3.40;;;10.90;92.40;;;;;;10088350;28;20078;-58
2021/10/13 00:41:54;;;;;;;4.32;2.88;;;10.90;92.40;;;;;;10115243;28;20373;-61
2021/10/13 00:46:44;;;;;;;4.40;3.40;;;10.90;92.40;;;;;;10090446;28;20418;-54
2021/10/13 00:51:35;;;;;;;4.45;3.00;;;10.80;92.30;;;;;;10099549;28;20029;-54
2021/10/13 00:56:26;;;;;;;5.70;3.50;;;10.70;92.30;;;;;;10113072;28;20120;-52
2021/10/13 01:01:26;;;;;;;6.45;3.92;;;10.70;92.30;;;;;;10116875;28;20491;-54
2021/10/13 01:06:28;;;;;;;4.38;3.35;;;10.70;92.50;;;;;;10115592;28;20024;-58
2021/10/13 01:11:24;;;;;;;5.50;3.25;;;10.60;92.60;;;;;;10119907;28;20024;-56
2021/10/13 01:16:40;;;;;;;4.65;3.67;;;10.60;92.60;;;;;;10120168;28;20048;-54
2021/10/13 01:21:47;;;;;;;3.80;2.97;;;10.50;92.70;;;;;;10124011;28;20024;-56
2021/10/13 01:26:45;;;;;;;8.25;4.07;;;10.40;92.60;;;;;;10136002;28;20032;-61
2021/10/13 01:31:48;;;;;;;5.90;2.70;;;10.30;92.60;;;;;;10103455;28;20151;-57
2021/10/13 01:36:44;;;;;;;5.03;2.92;;;10.20;92.60;;;;;;10133061;28;20024;-54
2021/10/13 01:41:37;;;;;;;5.20;3.37;;;10.20;92.80;;;;;;10129454;28;20017;-57
2021/10/13 01:46:29;;;;;;;4.68;2.92;;;10.10;92.80;;;;;;10122768;28;20048;-56
2021/10/13 01:51:20;;;;;;;5.07;2.97;;;10.00;92.70;;;;;;10113333;28;20031;-57
2021/10/13 01:56:13;;;;;;;5.57;2.47;;;9.90;92.80;;;;;;10127048;28;20070;-59
2021/10/13 02:01:10;;;;;;;4.35;3.08;;;9.80;92.90;;;;;;10128047;28;20575;-60
2021/10/13 02:06:02;;;;;;;4.80;2.65;;;9.70;92.90;;;;;;10127153;28;20040;-61
2021/10/13 02:10:55;;;;;;;4.30;2.42;;;9.80;92.90;;;;;;10121425;28;20120;-61
2021/10/13 02:15:48;;;;;;;3.53;2.30;;;9.70;92.80;;;;;;10123467;28;20044;-56
2021/10/13 02:20:39;;;;;;;4.43;2.53;;;9.70;92.80;;;;;;10120866;28;20020;-56
2021/10/13 02:25:35;;;;;;;4.32;2.38;;;9.70;92.70;;;;;;10127121;28;20300;-56
2021/10/13 02:30:26;;;;;;;6.55;2.83;;;9.60;92.90;;;;;;10121008;28;20032;-57
2021/10/13 02:35:17;;;;;;;2.83;2.25;;;9.50;92.80;;;;;;10118485;28;20044;-61
2021/10/13 02:40:08;;;;;;;5.25;2.40;;;9.50;92.70;;;;;;10107185;28;20088;-62
2021/10/13 02:44:59;;;;;;;5.30;3.17;;;9.50;92.70;;;;;;10118543;28;20063;-60
2021/10/13 02:49:59;;;;;;;3.63;2.95;;;9.40;92.90;;;;;;10109028;28;20025;-60
2021/10/13 02:55:19;;;;;;;3.60;2.30;;;9.40;92.90;;;;;;10121835;28;20431;-60
2021/10/13 03:00:11;;;;;;;3.05;1.85;;;9.40;92.90;;;;;;10118560;28;20028;-61
2021/10/13 03:05:02;;;;;;;2.50;2.28;;;9.30;92.90;;;;;;10122495;28;20071;-61
2021/10/13 03:10:00;;;;;;;6.50;2.45;;;9.30;93.00;;;;;;10108387;28;20037;-64
2021/10/13 03:14:54;;;;;;;4.72;2.22;;;9.20;92.90;;;;;;10113806;28;20048;-61
2021/10/13 03:19:46;;;;;;;4.68;2.60;;;9.20;92.90;;;;;;10114902;28;20023;-65
2021/10/13 03:24:39;;;;;;;4.15;2.58;;;9.20;92.80;;;;;;10125357;28;20092;-62
2021/10/13 03:29:30;;;;;;;6.95;2.65;;;9.20;92.90;;;;;;10118495;28;20529;-62
2021/10/13 03:34:21;;;;;;;3.80;2.15;;;9.00;93.00;;;;;;10118222;28;20037;-60
2021/10/13 03:39:15;;;;;;;3.15;1.98;;;9.00;92.90;;;;;;10119423;28;20607;-58
2021/10/13 03:44:06;;;;;;;4.47;3.10;;;9.00;92.90;;;;;;10117046;28;20047;-58
2021/10/13 03:48:57;;;;;;;4.45;2.97;;;9.10;92.80;;;;;;10114433;28;20108;-62
2021/10/13 03:53:48;;;;;;;5.95;3.55;;;9.00;92.80;;;;;;10106672;28;20120;-63
2021/10/13 03:58:39;;;;;;;5.25;3.30;;;8.90;92.80;;;;;;10122074;28;20035;-60
2021/10/13 04:03:30;;;;;;;5.18;3.60;;;8.90;92.80;;;;;;10122668;28;20039;-62
2021/10/13 04:08:20;;;;;;;7.78;3.80;;;8.80;92.80;;;;;;10121592;28;20410;-54
2021/10/13 04:13:11;;;;;;;8.27;3.17;;;8.70;92.80;;;;;;10117190;28;20047;-58
2021/10/13 04:18:04;;;;;;;4.13;2.58;;;8.70;92.90;;;;;;10117896;28;20088;-54
2021/10/13 04:22:54;;;;;;;6.57;3.05;;;8.80;92.80;;;;;;10120304;28;20031;-57
2021/10/13 04:27:45;;;;;;;7.18;2.88;;;8.70;92.90;;;;;;10114947;28;20017;-57
2021/10/13 04:32:36;;;;;;;5.85;3.17;;;8.70;92.90;;;;;;10121819;28;20040;-51
2021/10/13 04:37:27;;;;;;;5.25;2.95;;;8.60;92.80;;;;;;10121873;28;20111;-59
2021/10/13 04:42:17;;;;;;;4.20;2.47;;;8.70;92.70;;;;;;10121063;28;20025;-62
2021/10/13 04:47:08;;;;;;;5.00;2.53;;;8.60;92.80;;;;;;10110486;28;20017;-61
2021/10/13 04:51:59;;;;;;;5.15;2.75;;;8.60;92.90;;;;;;10120513;28;20610;-64
2021/10/13 04:56:50;;;;;;;7.82;4.28;;;8.70;92.90;;;;;;10113618;28;20028;-62
2021/10/13 05:01:41;;;;;;;5.65;2.65;;;8.60;92.90;;;;;;10110667;28;20036;-63
2021/10/13 05:06:31;;;;;;;7.15;3.45;;;8.60;92.90;;;;;;10118674;28;20027;-55
2021/10/13 05:11:22;;;;;;;5.10;2.90;;;8.60;92.80;;;;;;10117255;28;20665;-59
2021/10/13 05:16:13;;;;;;;9.52;3.60;;;8.60;92.90;;;;;;10118779;28;20123;-59
2021/10/13 05:21:04;;;;;;;5.18;3.03;;;8.50;92.90;;;;;;10116495;28;20427;-57
2021/10/13 05:25:54;;;;;;;4.78;3.20;;;8.40;92.90;;;;;;10105746;28;20040;-58
2021/10/13 05:30:45;;;;;;;6.47;3.35;;;8.50;92.80;;;;;;10102826;28;20740;-58
2021/10/13 05:35:36;;;;;;;6.35;3.40;;;8.30;92.90;;;;;;10110133;28;20037;-63
2021/10/13 05:40:26;;;;;;;6.78;3.35;;;8.40;92.90;;;;;;10104009;28;20035;-61
2021/10/13 05:45:17;;;;;;;8.88;5.28;;;8.40;92.90;;;;;;10102414;28;20066;-62
2021/10/13 05:50:08;;;;;;;5.90;3.85;;;8.30;92.90;;;;;;10108105;28;20052;-58
2021/10/13 05:54:58;;;;;;;7.15;4.20;;;8.30;93.00;;;;;;10118462;28;20426;-54
2021/10/13 05:59:56;;;;;;;6.93;3.28;;;8.40;92.90;;;;;;10115718;28;20039;-51
2021/10/13 06:04:47;;;;;;;8.13;3.67;;;8.40;92.90;;;;;;10104986;28;20033;-56
2021/10/13 06:09:37;;;;;;;7.88;3.75;;;8.40;92.90;;;;;;10129386;28;20055;-54
2021/10/13 06:14:28;;;;;;;8.40;3.47;;;8.40;92.90;;;;;;10128196;28;20076;-59
2021/10/13 06:19:19;;;;;;;6.13;3.78;;;8.50;92.90;;;;;;10114683;28;20071;-57
2021/10/13 06:24:09;;;;;;;9.48;4.40;;;8.40;93.00;;;;;;10125844;28;20033;-56
2021/10/13 06:29:00;;;;;;;7.35;4.60;;;8.40;92.90;;;;;;10128563;28;20537;-56
2021/10/13 06:33:52;;;;;;;6.10;3.47;;;8.40;92.90;;;;;;10116178;28;20120;-58
2021/10/13 06:38:43;;;;;;;9.98;3.65;;;8.50;93.00;;;;;;10120110;28;20024;-58
2021/10/13 06:43:33;;;;;;;7.35;4.07;;;8.60;92.90;;;;;;10118645;28;20035;-57
2021/10/13 06:48:24;;;;;;;7.68;3.97;;;8.50;93.10;;;;;;10116191;28;20016;-56
2021/10/13 06:53:14;;;;;;;8.18;3.72;;;8.60;93.00;;;;;;10119096;28;20549;-54
2021/10/13 06:58:05;;;;;;;10.40;4.28;;;8.60;92.90;;;;;;10116234;28;20449;-59
2021/10/13 07:02:56;;;;;;;7.20;4.15;;;8.80;92.80;;;;;;10111609;28;20091;-58
2021/10/13 07:07:48;;;;;;;6.93;4.00;;;8.90;92.80;;;;;;10119218;28;20017;-58
2021/10/13 07:12:39;;;;;;;7.97;4.18;;;8.90;92.70;;;;;;10122092;22;20167;-61
2021/10/13 07:17:30;;;;;;;6.18;4.38;;;9.00;92.70;;;;;;10093832;28;20277;-62
2021/10/13 07:22:21;;;;;;;8.45;4.18;;;9.00;92.70;;;;;;10103439;28;20086;-61
2021/10/13 07:27:12;;;;;;;7.07;4.63;;;9.10;92.60;;;;;;10101747;28;20025;-63
2021/10/13 07:32:03;;;;;;;6.90;4.38;;;9.20;92.60;;;;;;10101768;28;20368;-60
2021/10/13 07:36:54;;;;;;;6.85;3.40;;;9.20;92.60;;;;;;10105732;28;20429;-61
2021/10/13 07:41:45;;;;;;;7.13;4.82;;;9.20;92.60;;;;;;10099589;28;20035;-64
2021/10/13 07:46:35;;;;;;;7.88;3.60;;;9.30;92.50;;;;;;10101170;28;20025;-63
2021/10/13 07:51:26;;;;;;;6.43;3.67;;;9.40;92.40;;;;;;10102433;28;20023;-65
2021/10/13 07:56:17;;;;;;;6.75;3.75;;;9.50;92.40;;;;;;10104666;28;20063;-63
2021/10/13 08:01:07;;;;;;;7.90;3.70;;;9.70;92.30;;;;;;10099812;28;20163;-61
2021/10/13 08:05:58;;;;;;;8.18;3.78;;;9.70;92.30;;;;;;10101453;28;20114;-63
2021/10/13 08:10:48;;;;;;;7.65;3.53;;;9.80;92.20;;;;;;10087868;28;20021;-62
2021/10/13 08:15:39;;;;;;;7.13;3.60;;;9.90;92.20;;;;;;10082177;28;20468;-65
2021/10/13 08:20:30;;;;;;;5.80;4.00;;;10.00;92.20;;;;;;10088356;28;20272;-64
2021/10/13 08:25:21;;;;;;;10.25;5.03;;;10.20;92.10;;;;;;10081362;28;20059;-63
2021/10/13 08:30:12;;;;;;;6.05;3.83;;;10.30;91.90;;;;;;10071012;28;20386;-63
2021/10/13 08:35:05;;;;;;;7.22;4.55;;;10.40;91.80;;;;;;10069277;28;20055;-62
2021/10/13 08:39:55;;;;;;;7.97;4.43;;;10.60;91.80;;;;;;10078634;28;20021;-62
2021/10/13 08:44:46;;;;;;;8.43;4.65;;;10.60;91.80;;;;;;10088435;28;20025;-63
2021/10/13 08:49:40;;;;;;;6.15;3.67;;;10.70;91.70;;;;;;10079882;28;20033;-62
2021/10/13 08:54:30;;;;;;;9.20;3.95;;;10.90;91.50;;;;;;10069664;28;20123;-64
2021/10/13 08:59:41;;;;;;;8.50;4.18;;;10.80;91.60;;;;;;10068429;28;20104;-61
2021/10/13 09:04:32;;;;;;;6.53;3.22;;;10.80;91.60;;;;;;10085993;28;20025;-65
2021/10/13 09:09:22;;;;;;;6.63;3.00;;;10.70;91.60;;;;;;10067789;28;20140;-62
2021/10/13 09:14:18;;;;;;;6.57;3.67;;;10.80;91.50;;;;;;10085248;28;20049;-63
2021/10/13 09:19:09;;;;;;;3.42;2.95;;;11.00;91.30;;;;;;10085391;28;20025;-65
2021/10/13 09:24:08;;;;;;;10.35;3.63;;;11.30;91.10;;;;;;10085638;28;20047;-64
2021/10/13 09:28:59;;;;;;;5.25;2.83;;;11.50;91.00;;;;;;10086540;28;20028;-65
2021/10/13 09:33:59;;;;;;;5.68;2.88;;;11.60;90.90;;;;;;10085711;28;20040;-62
2021/10/13 09:38:49;;;;;;;6.43;3.10;;;11.80;90.80;;;;;;10061709;28;20537;-62
2021/10/13 09:43:40;;;;;;;4.78;2.35;;;11.80;90.60;;;;;;10089528;28;20313;-67
2021/10/13 09:48:32;;;;;;;4.60;2.30;;;11.60;90.40;;;;;;10091014;28;20510;-64
2021/10/13 09:53:22;;;;;;;7.43;2.67;;;11.60;90.60;;;;;;10090814;28;20682;-63
2021/10/13 09:58:31;;;;;;;5.90;2.53;;;11.70;90.40;;;;;;10092493;28;20059;-64
2021/10/13 10:03:22;;;;;;;4.05;2.60;;;11.70;90.20;;;;;;10089566;28;20040;-64
2021/10/13 10:08:13;;;;;;;4.30;2.13;;;11.60;90.10;;;;;;10093901;28;20523;-65
2021/10/13 10:13:11;;;;;;;3.17;2.13;;;11.70;90.00;;;;;;10095023;28;20143;-59
2021/10/13 10:18:31;;;;;;;6.55;2.58;;;11.90;89.60;;;;;;10092716;28;20172;-66
2021/10/13 10:23:34;;;;;;;4.15;2.53;;;12.30;89.00;;;;;;10092769;28;20572;-67
2021/10/13 10:29:01;;;;;;;7.55;2.72;;;12.40;88.40;;;;;;10094832;28;20025;-61
2021/10/13 10:34:03;;;;;;;4.18;2.95;;;12.50;88.10;;;;;;10047489;22;20487;-63
2021/10/13 10:38:53;;;;;;;4.43;3.13;;;12.70;88.20;;;;;;10117907;28;20025;-65
2021/10/13 10:43:44;;;;;;;6.50;2.38;;;13.00;88.20;;;;;;10117436;28;20035;-62
2021/10/13 10:48:46;;;;;;;6.68;2.42;;;13.10;87.90;;;;;;10125902;28;20035;-66
2021/10/13 10:53:37;;;;;;;4.13;2.38;;;13.30;87.60;;;;;;10121475;28;20639;-63
2021/10/13 10:58:32;;;;;;;4.65;3.17;;;13.10;87.70;;;;;;10120121;28;20078;-60
2021/10/13 11:03:27;;;;;;;5.93;2.45;;;13.00;87.40;;;;;;10116964;28;20502;-62
2021/10/13 11:08:18;;;;;;;3.67;1.85;;;13.10;86.80;;;;;;10121098;28;20411;-61
2021/10/13 11:13:09;;;;;;;3.90;1.90;;;12.90;86.40;;;;;;10122103;28;20072;-60
2021/10/13 11:18:16;;;;;;;4.47;1.70;;;13.20;85.60;;;;;;10125593;28;20046;-62
2021/10/13 11:23:09;;;;;;;4.13;2.33;;;13.20;84.30;;;;;;10124659;28;20032;-63
2021/10/13 11:28:04;;;;;;;4.38;1.98;;;13.40;84.70;;;;;;10105663;28;20127;-62
2021/10/13 11:32:55;;;;;;;2.92;1.77;;;13.20;84.80;;;;;;10095281;28;20067;-62
2021/10/13 11:37:48;;;;;;;3.17;1.63;;;13.00;84.70;;;;;;10116660;28;20078;-60
2021/10/13 11:42:39;;;;;;;2.42;1.38;;;13.00;84.30;;;;;;10095515;28;20031;-62
2021/10/13 11:47:32;;;;;;;6.93;1.60;;;12.90;84.30;;;;;;10112275;28;20036;-62
2021/10/13 11:52:23;;;;;;;3.45;1.33;;;12.80;83.90;;;;;;10113371;28;20032;-65
2021/10/13 11:57:15;;;;;;;5.57;1.30;;;12.80;83.50;;;;;;10099232;28;20071;-65
2021/10/13 12:02:14;;;;;;;2.75;1.80;;;12.60;83.30;;;;;;10118164;28;20012;-62
2021/10/13 12:07:15;;;;;;;4.55;1.90;;;12.60;82.80;;;;;;10115829;28;20112;-59
2021/10/13 12:12:12;;;;;;;2.05;1.13;;;12.70;82.70;;;;;;10094816;28;20020;-63
2021/10/13 12:17:02;;;;;;;1.77;1.23;;;12.80;82.80;;;;;;10113887;28;20282;-61
2021/10/13 12:22:03;;;;;;;4.18;1.33;;;12.90;82.40;;;;;;10111605;28;20255;-67
2021/10/13 12:26:54;;;;;;;2.05;1.30;;;13.20;82.30;;;;;;10121863;28;20340;-63
2021/10/13 12:31:45;;;;;;;2.95;1.33;;;13.40;82.00;;;;;;10098492;28;20445;-63
2021/10/13 12:36:38;;;;;;;2.42;1.08;;;13.80;82.10;;;;;;10111894;28;20627;-60
2021/10/13 12:41:41;;;;;;;4.03;1.65;;;13.90;81.80;;;;;;10109064;28;20021;-61
2021/10/13 12:46:33;;;;;;;3.17;1.48;;;13.60;81.80;;;;;;10109035;28;20133;-62
2021/10/13 12:51:24;;;;;;;3.47;1.50;;;13.30;82.40;;;;;;10114237;28;20068;-60
2021/10/13 12:56:16;;;;;;;1.67;1.33;;;13.00;82.40;;;;;;10114640;28;20083;-63
2021/10/13 13:01:07;;;;;;;3.28;1.60;;;12.80;82.60;;;;;;10112077;28;20021;-61
2021/10/13 13:05:58;;;;;;;4.00;1.67;;;12.70;82.00;;;;;;10111762;28;20032;-61
2021/10/13 13:10:52;;;;;;;1.77;1.48;;;12.70;81.80;;;;;;10107488;28;20584;-60
2021/10/13 13:15:45;;;;;;;4.70;1.98;;;12.60;82.00;;;;;;10110476;28;20025;-62
2021/10/13 13:20:36;;;;;;;5.80;1.70;;;12.60;81.70;;;;;;10113534;28;20020;-52
2021/10/13 13:25:27;;;;;;;3.78;1.42;;;12.70;81.20;;;;;;10106626;28;20054;-56
2021/10/13 13:30:18;;;;;;;5.65;1.90;;;12.70;81.30;;;;;;10115136;28;20020;-58
2021/10/13 13:35:09;;;;;;;3.45;2.15;;;12.80;81.20;;;;;;10109625;28;20557;-56
2021/10/13 13:39:59;;;;;;;3.47;1.80;;;12.90;81.00;;;;;;10114616;28;20374;-59
2021/10/13 13:44:50;;;;;;;2.95;2.05;;;13.00;81.00;;;;;;10114752;28;20788;-61
2021/10/13 13:49:41;;;;;;;7.68;1.85;;;13.30;80.70;;;;;;10102074;28;20100;-59
2021/10/13 13:54:32;;;;;;;4.15;1.90;;;13.40;80.70;;;;;;10113331;28;20417;-60
2021/10/13 13:59:24;;;;;;;4.90;1.95;;;13.70;80.40;;;;;;10108871;28;20111;-54
2021/10/13 14:04:15;;;;;;;2.72;1.50;;;13.90;80.20;;;;;;10117134;28;20546;-59
2021/10/13 14:09:06;;;;;;;3.88;1.80;;;14.30;80.10;;;;;;10102210;28;20096;-60
2021/10/13 14:13:56;;;;;;;2.45;1.60;;;16.80;77.10;;;;;;10113251;28;20039;-55
2021/10/13 14:18:47;;;;;;;2.25;1.38;;;16.40;76.90;;;;;;10110523;28;20032;-58
2021/10/13 14:23:37;;;;;;;5.07;1.30;;;16.40;76.60;;;;;;10114996;28;20039;-60
2021/10/13 14:28:28;;;;;;;2.47;1.20;;;17.90;74.30;;;;;;10093085;28;20021;-61
2021/10/13 14:33:19;;;;;;;2.03;1.48;;;20.70;67.90;;;;;;10115892;28;20048;-59
2021/10/13 14:38:10;;;;;;;4.13;1.95;;;19.10;69.40;;;;;;10096089;28;20483;-63
2021/10/13 14:43:02;;;;;;;2.83;1.67;;;20.80;67.00;;;;;;10116576;28;20032;-61
2021/10/13 14:47:53;;;;;;;3.55;1.45;;;19.60;66.90;;;;;;10115644;28;20023;-62
2021/10/13 14:52:44;;;;;;;2.78;1.60;;;17.30;69.20;;;;;;10115872;28;20509;-61
2021/10/13 14:57:35;;;;;;;2.22;1.70;;;18.40;67.80;;;;;;10121144;28;20031;-63
2021/10/13 15:02:25;;;;;;;2.83;1.85;;;18.70;66.20;;;;;;10124402;28;20337;-58
2021/10/13 15:07:16;;;;;;;3.05;1.42;;;20.40;61.90;;;;;;10094986;28;20116;-60
2021/10/13 15:12:07;;;;;;;5.53;1.35;;;22.50;57.70;;;;;;10098680;28;20021;-60
2021/10/13 15:16:58;;;;;;;2.00;1.45;;;22.40;56.50;;;;;;10116961;28;20363;-58
2021/10/13 15:21:49;;;;;;;9.45;3.67;;;22.30;56.40;;;;;;10117628;28;20043;-60
2021/10/13 15:26:39;;;;;;;3.92;2.33;;;22.50;55.10;;;;;;10120039;28;20029;-61
2021/10/13 15:31:30;;;;;;;2.25;1.48;;;21.40;56.30;;;;;;10125521;28;20035;-60
2021/10/13 15:36:20;;;;;;;5.30;2.72;;;21.40;56.50;;;;;;10120467;28;20172;-59
2021/10/13 15:41:11;;;;;;;3.13;1.70;;;21.10;54.80;;;;;;10123762;28;20032;-63
2021/10/13 15:46:02;;;;;;;3.55;1.27;;;19.60;57.80;;;;;;10099350;28;20037;-54
2021/10/13 15:50:54;;;;;;;2.45;1.92;;;20.20;55.20;;;;;;10101410;28;20120;-59
2021/10/13 15:55:45;;;;;;;2.22;1.48;;;17.20;60.40;;;;;;10103343;28;20036;-57
2021/10/13 16:00:36;;;;;;;3.25;1.80;;;15.50;63.50;;;;;;10118513;28;20034;-59
2021/10/13 16:05:27;;;;;;;3.30;1.50;;;14.70;64.50;;;;;;10122860;28;20037;-63
2021/10/13 16:10:17;;;;;;;4.72;1.40;;;14.20;64.90;;;;;;10120798;28;20121;-60
2021/10/13 16:15:09;;;;;;;2.28;1.67;;;14.10;65.50;;;;;;10120646;28;20044;-61
2021/10/13 16:19:59;;;;;;;3.50;1.70;;;13.80;66.10;;;;;;10104412;28;20040;-59
2021/10/13 16:24:51;;;;;;;3.60;1.73;;;13.60;66.30;;;;;;10112037;28;20031;-64
2021/10/13 16:29:41;;;;;;;3.50;2.22;;;13.40;66.60;;;;;;10121697;28;20041;-63
2021/10/13 16:34:34;;;;;;;3.05;1.85;;;13.30;67.00;;;;;;10112860;28;20526;-63
2021/10/13 16:39:24;;;;;;;4.00;1.92;;;13.20;67.70;;;;;;10117050;28;20024;-60
2021/10/13 16:44:15;;;;;;;4.60;2.30;;;13.10;68.30;;;;;;10123306;28;20103;-58
2021/10/13 16:49:06;;;;;;;5.50;2.15;;;13.00;68.60;;;;;;10096519;28;20159;-58
2021/10/13 16:53:57;;;;;;;6.30;2.47;;;13.00;68.90;;;;;;10124519;28;20040;-58
2021/10/13 16:58:48;;;;;;;8.93;4.00;;;12.90;70.10;;;;;;10119264;28;20103;-60
2021/10/13 17:03:39;;;;;;;6.03;2.40;;;12.90;70.00;;;;;;10102964;28;20439;-58
2021/10/13 17:08:30;;;;;;;3.40;1.95;;;12.80;70.70;;;;;;10114551;28;20031;-63
2021/10/13 17:13:21;;;;;;;4.25;2.17;;;12.80;71.00;;;;;;10097239;28;20036;-54
2021/10/13 17:18:12;;;;;;;5.55;2.78;;;12.80;71.50;;;;;;10111328;28;20101;-57
2021/10/13 17:23:04;;;;;;;3.92;2.58;;;12.80;71.60;;;;;;10109768;28;20041;-55
2021/10/13 17:27:55;;;;;;;3.40;1.67;;;12.70;72.10;;;;;;10106123;28;20365;-63
2021/10/13 17:32:45;;;;;;;5.30;2.00;;;12.70;72.40;;;;;;10110703;28;20194;-60
2021/10/13 17:37:36;;;;;;;3.97;2.40;;;12.70;72.70;;;;;;10114342;28;20063;-61
2021/10/13 17:42:27;;;;;;;2.75;2.25;;;12.60;73.30;;;;;;10118974;28;20033;-60
2021/10/13 17:47:19;;;;;;;5.25;2.08;;;12.50;73.60;;;;;;10104634;28;20020;-59
2021/10/13 17:52:10;;;;;;;6.30;1.98;;;12.30;73.80;;;;;;10085837;28;20099;-53
2021/10/13 17:57:01;;;;;;;4.32;2.35;;;12.30;73.90;;;;;;10114958;28;20063;-51
2021/10/13 18:01:52;;;;;;;4.97;1.98;;;12.20;74.20;;;;;;10106707;28;20119;-59
2021/10/13 18:06:43;;;;;;;5.82;1.98;;;12.10;74.50;;;;;;10125392;28;20564;-55
2021/10/13 18:11:34;;;;;;;3.25;2.50;;;12.10;74.70;;;;;;10121658;28;20166;-54
2021/10/13 18:16:25;;;;;;;3.08;1.90;;;12.00;75.00;;;;;;10124211;28;20392;-59
2021/10/13 18:21:16;;;;;;;4.80;2.90;;;11.90;75.10;;;;;;10114806;28;20032;-56
2021/10/13 18:26:07;;;;;;;7.00;3.45;;;11.90;75.30;;;;;;10122351;28;20024;-60
2021/10/13 18:30:57;;;;;;;5.70;2.65;;;11.90;75.40;;;;;;10102786;28;20147;-57
2021/10/13 18:35:48;;;;;;;4.10;2.72;;;11.80;75.80;;;;;;10120014;28;20041;-59
2021/10/13 18:40:39;;;;;;;5.55;2.25;;;11.80;76.10;;;;;;10122762;28;20054;-59
2021/10/13 18:45:30;;;;;;;6.82;3.28;;;11.80;76.30;;;;;;10123999;28;20482;-58
2021/10/13 18:50:21;;;;;;;6.10;3.55;;;11.70;76.60;;;;;;10120327;28;20494;-58
2021/10/13 18:55:11;;;;;;;3.88;2.78;;;11.60;76.90;;;;;;10118240;28;20070;-60
2021/10/13 19:00:05;;;;;;;6.15;3.05;;;11.50;77.30;;;;;;10128970;28;20040;-59
2021/10/13 19:04:56;;;;;;;6.10;2.83;;;11.50;77.70;;;;;;10118350;28;20617;-60
2021/10/13 19:09:47;;;;;;;5.65;3.30;;;11.50;78.00;;;;;;10128468;28;20496;-62
2021/10/13 19:14:37;;;;;;;6.25;2.92;;;11.40;78.30;;;;;;10098702;28;20037;-58
2021/10/13 19:19:28;;;;;;;5.35;3.22;;;11.40;78.40;;;;;;10117977;28;20043;-59
2021/10/13 19:24:19;;;;;;;5.88;2.95;;;11.40;78.80;;;;;;10118176;28;20024;-61
2021/10/13 19:29:10;;;;;;;7.57;3.35;;;11.30;79.10;;;;;;10117856;28;20295;-58
2021/10/13 19:34:02;;;;;;;8.15;3.80;;;11.20;79.50;;;;;;10114766;28;20063;-62
2021/10/13 19:38:52;;;;;;;9.05;4.68;;;11.20;79.70;;;;;;10119405;28;20213;-61
2021/10/13 19:43:43;;;;;;;11.38;4.68;;;11.20;79.70;;;;;;10116172;28;20562;-61
2021/10/13 19:48:34;;;;;;;10.18;4.40;;;11.20;80.10;;;;;;10118051;28;20024;-61
2021/10/13 19:53:25;;;;;;;8.45;4.75;;;11.10;80.40;;;;;;10106855;28;20091;-57
2021/10/13 19:58:16;;;;;;;7.72;4.10;;;11.00;81.30;;;;;;10123908;28;20398;-61
2021/10/13 20:03:07;;;;;;;6.20;4.38;;;10.90;81.00;;;;;;10118522;28;20570;-62
2021/10/13 20:07:57;;;;;;;10.80;4.88;;;10.80;81.30;;;;;;10123108;28;20039;-60
2021/10/13 20:12:48;;;;;;;9.55;4.90;;;10.90;81.70;;;;;;10126952;28;20033;-58
2021/10/13 20:17:39;;;;;;;8.20;4.20;;;10.80;81.80;;;;;;10111691;28;20438;-63
2021/10/13 20:22:30;;;;;;;9.07;4.90;;;10.80;82.00;;;;;;10123162;28;20063;-63
2021/10/13 20:27:20;;;;;;;12.27;4.80;;;10.70;82.20;;;;;;10120966;28;20040;-60
2021/10/13 20:32:11;;;;;;;9.85;4.28;;;10.70;82.50;;;;;;10118714;28;20056;-63
2021/10/13 20:37:03;;;;;;;6.10;4.10;;;10.70;82.80;;;;;;10111134;28;20560;-59
2021/10/13 20:41:55;;;;;;;8.60;5.00;;;10.60;83.00;;;;;;10114913;28;20066;-61
2021/10/13 20:46:45;;;;;;;9.13;4.93;;;10.70;83.20;;;;;;10114944;28;20037;-61
2021/10/13 20:51:36;;;;;;;12.20;5.65;;;10.60;83.50;;;;;;10115843;28;20133;-60
2021/10/13 20:56:27;;;;;;;15.20;6.47;;;10.60;83.80;;;;;;10113527;28;20082;-63
2021/10/13 21:01:18;;;;;;;8.35;5.80;;;10.50;84.00;;;;;;10110441;28;20407;-61
2021/10/13 21:06:09;;;;;;;9.77;5.80;;;10.60;84.10;;;;;;10112640;28;20111;-60
2021/10/13 21:11:00;;;;;;;12.35;6.60;;;10.60;84.30;;;;;;10113951;28;20531;-62
2021/10/13 21:15:51;;;;;;;7.72;5.07;;;10.60;84.40;;;;;;10108655;28;20040;-65
2021/10/13 21:20:42;;;;;;;9.55;4.68;;;10.50;84.50;;;;;;10112327;28;20099;-62
2021/10/13 21:25:32;;;;;;;8.55;4.95;;;10.50;84.80;;;;;;10105094;28;20056;-61
2021/10/13 21:30:23;;;;;;;11.02;6.35;;;10.40;85.10;;;;;;10104479;28;20042;-59
2021/10/13 21:35:14;;;;;;;6.75;4.80;;;10.50;85.40;;;;;;10091517;28;20520;-58
2021/10/13 21:40:07;;;;;;;9.93;4.80;;;10.50;85.50;;;;;;10117895;28;20025;-57
2021/10/13 21:44:57;;;;;;;8.90;5.10;;;10.50;85.40;;;;;;10120292;28;20463;-56
2021/10/13 21:49:48;;;;;;;7.38;4.65;;;10.40;85.90;;;;;;10125706;28;20024;-60
2021/10/13 21:54:39;;;;;;;11.98;6.13;;;10.30;86.10;;;;;;10120564;28;20050;-59
2021/10/13 21:59:30;;;;;;;9.85;5.68;;;10.10;86.80;;;;;;10119828;28;20521;-59
2021/10/13 22:04:21;;;;;;;10.10;5.70;;;10.00;86.90;;;;;;10114130;28;20043;-57
2021/10/13 22:09:11;;;;;;;18.25;6.00;;;9.90;87.00;;;;;;10113250;28;20357;-59
2021/10/13 22:14:02;;;;;;;8.35;4.82;;;9.90;87.20;;;;;;10122899;28;20508;-56
2021/10/13 22:18:53;;;;;;;8.77;4.57;;;10.00;87.00;;;;;;10110155;28;20700;-59
2021/10/13 22:23:43;;;;;;;9.30;4.57;;;10.00;86.80;;;;;;10127459;28;20077;-59
2021/10/13 22:28:34;;;;;;;8.93;4.40;;;9.90;87.00;;;;;;10118798;28;20446;-59
2021/10/13 22:33:25;;;;;;;8.93;5.05;;;9.90;86.90;;;;;;10118844;28;20060;-59
2021/10/13 22:38:17;;;;;;;7.80;4.47;;;9.90;87.10;;;;;;10115557;28;20060;-57
2021/10/13 22:43:08;;;;;;;7.47;4.10;;;9.90;87.00;;;;;;10117039;28;20119;-61
2021/10/13 22:47:58;;;;;;;9.95;4.88;;;9.80;87.30;;;;;;10119000;28;20103;-58
2021/10/13 22:52:50;;;;;;;10.43;5.45;;;9.80;87.40;;;;;;10126208;28;20099;-62
2021/10/13 22:57:41;;;;;;;10.50;5.40;;;9.70;87.40;;;;;;10112074;28;20066;-61
2021/10/13 23:02:32;;;;;;;11.23;5.60;;;9.70;87.40;;;;;;10119913;28;20120;-63
2021/10/13 23:07:22;;;;;;;8.73;5.55;;;9.70;87.60;;;;;;10117447;28;20021;-57
2021/10/13 23:12:13;;;;;;;12.45;5.90;;;9.70;87.60;;;;;;10101107;28;20029;-58
2021/10/13 23:17:04;;;;;;;10.68;6.10;;;9.60;87.80;;;;;;10116313;28;20033;-57
2021/10/13 23:21:55;;;;;;;10.48;5.32;;;9.70;87.80;;;;;;10107578;28;20021;-59
2021/10/13 23:26:46;;;;;;;8.68;5.03;;;9.60;88.00;;;;;;10116974;28;20033;-61
2021/10/13 23:31:36;;;;;;;9.70;4.97;;;9.50;88.20;;;;;;10101081;28;20573;-61
2021/10/13 23:36:27;;;;;;;8.23;4.55;;;9.50;88.40;;;;;;10125737;28;20044;-55
2021/10/13 23:41:18;;;;;;;8.30;4.47;;;9.50;88.40;;;;;;10113861;28;20027;-57
2021/10/13 23:46:09;;;;;;;7.63;4.20;;;9.50;88.30;;;;;;10113442;28;20028;-55
2021/10/13 23:51:00;;;;;;;6.15;3.30;;;9.30;88.50;;;;;;10124689;28;20048;-56
2021/10/13 23:55:50;;;;;;;4.53;3.72;;;9.40;88.70;;;;;;10112728;28;20040;-56
